sensor_id;sensor_type;location;lat;lon;timestamp;P1;durP1;ratioP1;P2;durP2;ratioP2
40339;SDS011;26044;50.864;20.658;2023-03-23T00:02:26;54.88;;;26.27;;
40339;SDS011;26044;50.864;20.658;2023-03-23T00:04:53;52.35;;;24.35;;
40339;SDS011;26044;50.864;20.658;2023-03-23T00:07:20;47.55;;;23.70;;
40339;SDS011;26044;50.864;20.658;2023-03-23T00:09:49;52.47;;;25.75;;
40339;SDS011;26044;50.864;20.658;2023-03-23T00:12:26;51.33;;;25.90;;
40339;SDS011;26044;50.864;20.658;2023-03-23T00:14:59;47.90;;;24.05;;
40339;SDS011;26044;50.864;20.658;2023-03-23T00:17:26;47.72;;;24.45;;
40339;SDS011;26044;50.864;20.658;2023-03-23T00:19:52;59.50;;;28.52;;
40339;SDS011;26044;50.864;20.658;2023-03-23T00:22:18;53.80;;;26.95;;
40339;SDS011;26044;50.864;20.658;2023-03-23T00:24:46;65.88;;;33.63;;
40339;SDS011;26044;50.864;20.658;2023-03-23T00:27:13;78.55;;;39.03;;
40339;SDS011;26044;50.864;20.658;2023-03-23T00:29:40;68.72;;;35.38;;
40339;SDS011;26044;50.864;20.658;2023-03-23T00:32:07;70.53;;;36.20;;
40339;SDS011;26044;50.864;20.658;2023-03-23T00:34:39;67.53;;;36.80;;
40339;SDS011;26044;50.864;20.658;2023-03-23T00:37:06;66.72;;;35.30;;
40339;SDS011;26044;50.864;20.658;2023-03-23T00:39:32;67.10;;;33.33;;
40339;SDS011;26044;50.864;20.658;2023-03-23T00:42:02;66.63;;;33.13;;
40339;SDS011;26044;50.864;20.658;2023-03-23T00:44:30;68.85;;;34.35;;
40339;SDS011;26044;50.864;20.658;2023-03-23T00:46:57;63.92;;;34.70;;
40339;SDS011;26044;50.864;20.658;2023-03-23T00:49:24;66.22;;;34.58;;
40339;SDS011;26044;50.864;20.658;2023-03-23T00:51:50;68.18;;;34.88;;
40339;SDS011;26044;50.864;20.658;2023-03-23T00:54:17;67.53;;;32.78;;
40339;SDS011;26044;50.864;20.658;2023-03-23T00:56:43;66.57;;;34.72;;
40339;SDS011;26044;50.864;20.658;2023-03-23T00:59:09;66.20;;;35.30;;
40339;SDS011;26044;50.864;20.658;2023-03-23T01:01:35;66.00;;;36.03;;
40339;SDS011;26044;50.864;20.658;2023-03-23T01:04:02;62.45;;;34.20;;
40339;SDS011;26044;50.864;20.658;2023-03-23T01:06:32;63.25;;;32.65;;
40339;SDS011;26044;50.864;20.658;2023-03-23T01:09:00;65.50;;;36.13;;
40339;SDS011;26044;50.864;20.658;2023-03-23T01:11:28;65.45;;;35.25;;
40339;SDS011;26044;50.864;20.658;2023-03-23T01:13:54;67.35;;;36.35;;
40339;SDS011;26044;50.864;20.658;2023-03-23T01:16:22;74.15;;;36.00;;
40339;SDS011;26044;50.864;20.658;2023-03-23T01:18:48;62.78;;;33.38;;
40339;SDS011;26044;50.864;20.658;2023-03-23T01:21:17;66.75;;;33.40;;
40339;SDS011;26044;50.864;20.658;2023-03-23T01:23:43;64.32;;;33.13;;
40339;SDS011;26044;50.864;20.658;2023-03-23T01:26:11;68.22;;;33.67;;
40339;SDS011;26044;50.864;20.658;2023-03-23T01:28:37;61.65;;;31.92;;
40339;SDS011;26044;50.864;20.658;2023-03-23T01:31:04;67.32;;;34.63;;
40339;SDS011;26044;50.864;20.658;2023-03-23T01:33:31;67.90;;;35.38;;
40339;SDS011;26044;50.864;20.658;2023-03-23T01:35:58;65.45;;;34.80;;
40339;SDS011;26044;50.864;20.658;2023-03-23T01:38:25;60.83;;;33.72;;
40339;SDS011;26044;50.864;20.658;2023-03-23T01:40:51;64.93;;;33.58;;
40339;SDS011;26044;50.864;20.658;2023-03-23T01:43:17;60.63;;;32.03;;
40339;SDS011;26044;50.864;20.658;2023-03-23T01:45:43;61.92;;;33.50;;
40339;SDS011;26044;50.864;20.658;2023-03-23T01:48:14;67.65;;;33.05;;
40339;SDS011;26044;50.864;20.658;2023-03-23T01:51:03;66.53;;;33.35;;
40339;SDS011;26044;50.864;20.658;2023-03-23T01:53:36;69.88;;;34.45;;
40339;SDS011;26044;50.864;20.658;2023-03-23T01:56:02;64.93;;;33.45;;
40339;SDS011;26044;50.864;20.658;2023-03-23T01:58:31;62.45;;;33.17;;
40339;SDS011;26044;50.864;20.658;2023-03-23T02:00:58;68.43;;;33.28;;
40339;SDS011;26044;50.864;20.658;2023-03-23T02:03:27;63.83;;;32.47;;
40339;SDS011;26044;50.864;20.658;2023-03-23T02:05:57;59.63;;;31.13;;
40339;SDS011;26044;50.864;20.658;2023-03-23T02:08:27;62.70;;;32.50;;
40339;SDS011;26044;50.864;20.658;2023-03-23T02:10:54;61.53;;;31.70;;
40339;SDS011;26044;50.864;20.658;2023-03-23T02:13:20;63.85;;;33.40;;
40339;SDS011;26044;50.864;20.658;2023-03-23T02:23:28;63.28;;;33.20;;
40339;SDS011;26044;50.864;20.658;2023-03-23T02:34:09;65.32;;;34.22;;
40339;SDS011;26044;50.864;20.658;2023-03-23T02:36:55;64.60;;;33.20;;
40339;SDS011;26044;50.864;20.658;2023-03-23T02:39:26;64.22;;;33.38;;
40339;SDS011;26044;50.864;20.658;2023-03-23T02:41:56;61.65;;;35.13;;
40339;SDS011;26044;50.864;20.658;2023-03-23T02:44:24;61.10;;;34.42;;
40339;SDS011;26044;50.864;20.658;2023-03-23T02:46:55;64.88;;;34.08;;
40339;SDS011;26044;50.864;20.658;2023-03-23T02:49:22;67.97;;;34.92;;
40339;SDS011;26044;50.864;20.658;2023-03-23T02:51:50;67.38;;;34.85;;
40339;SDS011;26044;50.864;20.658;2023-03-23T02:54:16;71.82;;;36.75;;
40339;SDS011;26044;50.864;20.658;2023-03-23T02:56:44;68.10;;;36.13;;
40339;SDS011;26044;50.864;20.658;2023-03-23T02:59:11;66.10;;;34.67;;
40339;SDS011;26044;50.864;20.658;2023-03-23T03:04:11;63.22;;;33.30;;
40339;SDS011;26044;50.864;20.658;2023-03-23T03:11:41;65.85;;;34.90;;
40339;SDS011;26044;50.864;20.658;2023-03-23T03:14:19;60.78;;;32.40;;
40339;SDS011;26044;50.864;20.658;2023-03-23T03:17:01;65.25;;;33.42;;
40339;SDS011;26044;50.864;20.658;2023-03-23T03:19:30;62.70;;;33.20;;
40339;SDS011;26044;50.864;20.658;2023-03-23T03:21:58;64.00;;;32.35;;
40339;SDS011;26044;50.864;20.658;2023-03-23T03:24:26;62.88;;;32.55;;
40339;SDS011;26044;50.864;20.658;2023-03-23T03:26:53;62.45;;;32.72;;
40339;SDS011;26044;50.864;20.658;2023-03-23T03:29:29;59.90;;;30.63;;
40339;SDS011;26044;50.864;20.658;2023-03-23T03:31:56;58.30;;;32.03;;
40339;SDS011;26044;50.864;20.658;2023-03-23T03:34:24;57.83;;;29.95;;
40339;SDS011;26044;50.864;20.658;2023-03-23T03:36:51;61.92;;;32.92;;
40339;SDS011;26044;50.864;20.658;2023-03-23T03:39:17;53.65;;;29.90;;
40339;SDS011;26044;50.864;20.658;2023-03-23T03:41:45;57.00;;;30.48;;
40339;SDS011;26044;50.864;20.658;2023-03-23T03:44:12;58.42;;;30.88;;
40339;SDS011;26044;50.864;20.658;2023-03-23T03:46:38;62.22;;;32.30;;
40339;SDS011;26044;50.864;20.658;2023-03-23T03:49:05;54.30;;;30.52;;
40339;SDS011;26044;50.864;20.658;2023-03-23T03:51:32;60.95;;;31.15;;
40339;SDS011;26044;50.864;20.658;2023-03-23T03:53:59;57.53;;;30.63;;
40339;SDS011;26044;50.864;20.658;2023-03-23T03:56:25;54.67;;;28.98;;
40339;SDS011;26044;50.864;20.658;2023-03-23T03:58:52;54.22;;;29.42;;
40339;SDS011;26044;50.864;20.658;2023-03-23T04:01:20;59.47;;;31.65;;
40339;SDS011;26044;50.864;20.658;2023-03-23T04:03:48;56.55;;;30.02;;
40339;SDS011;26044;50.864;20.658;2023-03-23T04:06:14;60.03;;;30.95;;
40339;SDS011;26044;50.864;20.658;2023-03-23T04:08:41;58.83;;;30.40;;
40339;SDS011;26044;50.864;20.658;2023-03-23T04:11:09;55.65;;;28.85;;
40339;SDS011;26044;50.864;20.658;2023-03-23T04:13:35;52.78;;;29.00;;
40339;SDS011;26044;50.864;20.658;2023-03-23T04:16:02;51.78;;;29.88;;
40339;SDS011;26044;50.864;20.658;2023-03-23T04:18:28;56.40;;;29.63;;
40339;SDS011;26044;50.864;20.658;2023-03-23T04:20:57;56.05;;;30.13;;
40339;SDS011;26044;50.864;20.658;2023-03-23T04:23:26;58.83;;;30.30;;
40339;SDS011;26044;50.864;20.658;2023-03-23T04:25:53;58.65;;;32.00;;
40339;SDS011;26044;50.864;20.658;2023-03-23T04:28:22;60.13;;;30.05;;
40339;SDS011;26044;50.864;20.658;2023-03-23T04:30:50;58.20;;;30.17;;
40339;SDS011;26044;50.864;20.658;2023-03-23T04:33:19;58.90;;;31.95;;
40339;SDS011;26044;50.864;20.658;2023-03-23T04:35:47;60.33;;;31.67;;
40339;SDS011;26044;50.864;20.658;2023-03-23T04:38:17;58.58;;;30.75;;
40339;SDS011;26044;50.864;20.658;2023-03-23T04:40:48;70.25;;;36.72;;
40339;SDS011;26044;50.864;20.658;2023-03-23T04:45:46;74.97;;;37.00;;
40339;SDS011;26044;50.864;20.658;2023-03-23T04:48:12;71.78;;;36.58;;
40339;SDS011;26044;50.864;20.658;2023-03-23T04:50:39;62.92;;;33.20;;
40339;SDS011;26044;50.864;20.658;2023-03-23T04:53:05;74.68;;;39.05;;
40339;SDS011;26044;50.864;20.658;2023-03-23T04:55:32;66.93;;;35.63;;
40339;SDS011;26044;50.864;20.658;2023-03-23T04:58:02;70.25;;;36.42;;
40339;SDS011;26044;50.864;20.658;2023-03-23T05:00:29;69.20;;;35.92;;
40339;SDS011;26044;50.864;20.658;2023-03-23T05:02:55;72.22;;;35.47;;
40339;SDS011;26044;50.864;20.658;2023-03-23T05:05:22;74.85;;;36.58;;
40339;SDS011;26044;50.864;20.658;2023-03-23T05:07:49;69.70;;;38.25;;
40339;SDS011;26044;50.864;20.658;2023-03-23T05:10:16;75.68;;;39.65;;
40339;SDS011;26044;50.864;20.658;2023-03-23T05:12:42;74.20;;;39.25;;
40339;SDS011;26044;50.864;20.658;2023-03-23T05:15:09;66.95;;;37.55;;
40339;SDS011;26044;50.864;20.658;2023-03-23T05:17:35;72.05;;;39.35;;
40339;SDS011;26044;50.864;20.658;2023-03-23T05:20:02;83.32;;;44.90;;
40339;SDS011;26044;50.864;20.658;2023-03-23T05:22:30;88.45;;;48.45;;
40339;SDS011;26044;50.864;20.658;2023-03-23T05:24:59;85.18;;;48.67;;
40339;SDS011;26044;50.864;20.658;2023-03-23T05:27:28;77.95;;;45.22;;
40339;SDS011;26044;50.864;20.658;2023-03-23T05:29:56;113.38;;;62.80;;
40339;SDS011;26044;50.864;20.658;2023-03-23T05:32:24;98.97;;;55.40;;
40339;SDS011;26044;50.864;20.658;2023-03-23T05:34:59;107.28;;;59.35;;
40339;SDS011;26044;50.864;20.658;2023-03-23T05:37:26;102.47;;;56.53;;
40339;SDS011;26044;50.864;20.658;2023-03-23T05:39:57;91.10;;;51.88;;
40339;SDS011;26044;50.864;20.658;2023-03-23T05:42:23;98.57;;;52.95;;
40339;SDS011;26044;50.864;20.658;2023-03-23T05:44:50;92.00;;;49.22;;
40339;SDS011;26044;50.864;20.658;2023-03-23T05:47:16;84.97;;;48.95;;
40339;SDS011;26044;50.864;20.658;2023-03-23T05:49:42;81.70;;;47.78;;
40339;SDS011;26044;50.864;20.658;2023-03-23T05:52:08;75.03;;;43.08;;
40339;SDS011;26044;50.864;20.658;2023-03-23T05:54:35;79.07;;;43.65;;
40339;SDS011;26044;50.864;20.658;2023-03-23T05:57:02;68.22;;;39.17;;
40339;SDS011;26044;50.864;20.658;2023-03-23T05:59:28;73.28;;;40.05;;
40339;SDS011;26044;50.864;20.658;2023-03-23T06:01:54;70.55;;;39.33;;
40339;SDS011;26044;50.864;20.658;2023-03-23T06:04:20;58.72;;;31.80;;
40339;SDS011;26044;50.864;20.658;2023-03-23T06:06:49;47.13;;;25.20;;
40339;SDS011;26044;50.864;20.658;2023-03-23T06:09:17;41.08;;;20.38;;
40339;SDS011;26044;50.864;20.658;2023-03-23T06:11:43;40.35;;;19.98;;
40339;SDS011;26044;50.864;20.658;2023-03-23T06:14:09;39.90;;;19.92;;
40339;SDS011;26044;50.864;20.658;2023-03-23T06:16:36;38.00;;;19.27;;
40339;SDS011;26044;50.864;20.658;2023-03-23T06:19:02;43.35;;;20.35;;
40339;SDS011;26044;50.864;20.658;2023-03-23T06:21:29;38.00;;;19.17;;
40339;SDS011;26044;50.864;20.658;2023-03-23T06:23:56;38.17;;;18.52;;
40339;SDS011;26044;50.864;20.658;2023-03-23T06:26:24;38.47;;;19.23;;
40339;SDS011;26044;50.864;20.658;2023-03-23T06:28:51;40.13;;;20.27;;
40339;SDS011;26044;50.864;20.658;2023-03-23T06:31:17;35.97;;;18.65;;
40339;SDS011;26044;50.864;20.658;2023-03-23T06:33:45;39.33;;;19.88;;
40339;SDS011;26044;50.864;20.658;2023-03-23T06:36:12;38.85;;;20.30;;
40339;SDS011;26044;50.864;20.658;2023-03-23T06:38:38;38.22;;;19.75;;
40339;SDS011;26044;50.864;20.658;2023-03-23T06:41:04;43.05;;;21.23;;
40339;SDS011;26044;50.864;20.658;2023-03-23T06:43:31;44.20;;;19.63;;
40339;SDS011;26044;50.864;20.658;2023-03-23T06:45:59;36.85;;;18.95;;
40339;SDS011;26044;50.864;20.658;2023-03-23T06:48:25;41.92;;;20.98;;
40339;SDS011;26044;50.864;20.658;2023-03-23T06:50:52;41.58;;;21.08;;
40339;SDS011;26044;50.864;20.658;2023-03-23T06:53:18;41.72;;;20.05;;
40339;SDS011;26044;50.864;20.658;2023-03-23T06:55:45;38.80;;;19.58;;
40339;SDS011;26044;50.864;20.658;2023-03-23T06:58:11;35.78;;;19.05;;
40339;SDS011;26044;50.864;20.658;2023-03-23T07:00:38;39.53;;;19.80;;
40339;SDS011;26044;50.864;20.658;2023-03-23T07:03:05;35.63;;;18.92;;
40339;SDS011;26044;50.864;20.658;2023-03-23T07:05:32;36.40;;;18.52;;
40339;SDS011;26044;50.864;20.658;2023-03-23T07:07:58;35.35;;;17.08;;
40339;SDS011;26044;50.864;20.658;2023-03-23T07:10:24;37.33;;;19.35;;
40339;SDS011;26044;50.864;20.658;2023-03-23T07:12:50;35.35;;;17.88;;
40339;SDS011;26044;50.864;20.658;2023-03-23T07:15:16;37.65;;;17.77;;
40339;SDS011;26044;50.864;20.658;2023-03-23T07:17:42;37.38;;;18.65;;
40339;SDS011;26044;50.864;20.658;2023-03-23T07:20:09;37.85;;;18.67;;
40339;SDS011;26044;50.864;20.658;2023-03-23T07:22:35;32.70;;;17.90;;
40339;SDS011;26044;50.864;20.658;2023-03-23T07:25:01;31.45;;;16.15;;
40339;SDS011;26044;50.864;20.658;2023-03-23T07:27:27;37.20;;;17.33;;
40339;SDS011;26044;50.864;20.658;2023-03-23T07:29:54;34.42;;;17.45;;
40339;SDS011;26044;50.864;20.658;2023-03-23T07:32:20;42.38;;;18.75;;
40339;SDS011;26044;50.864;20.658;2023-03-23T07:34:46;34.20;;;17.88;;
40339;SDS011;26044;50.864;20.658;2023-03-23T07:37:12;33.92;;;18.85;;
40339;SDS011;26044;50.864;20.658;2023-03-23T07:39:38;43.10;;;19.08;;
40339;SDS011;26044;50.864;20.658;2023-03-23T07:42:05;39.30;;;19.75;;
40339;SDS011;26044;50.864;20.658;2023-03-23T07:44:32;33.22;;;17.40;;
40339;SDS011;26044;50.864;20.658;2023-03-23T07:46:58;52.38;;;20.63;;
40339;SDS011;26044;50.864;20.658;2023-03-23T07:49:25;41.63;;;18.10;;
40339;SDS011;26044;50.864;20.658;2023-03-23T07:51:51;36.42;;;17.80;;
40339;SDS011;26044;50.864;20.658;2023-03-23T07:54:18;36.67;;;17.63;;
40339;SDS011;26044;50.864;20.658;2023-03-23T07:56:44;36.22;;;16.90;;
40339;SDS011;26044;50.864;20.658;2023-03-23T07:59:11;40.58;;;16.08;;
40339;SDS011;26044;50.864;20.658;2023-03-23T08:01:38;29.58;;;13.85;;
40339;SDS011;26044;50.864;20.658;2023-03-23T08:04:04;24.45;;;11.32;;
40339;SDS011;26044;50.864;20.658;2023-03-23T08:06:32;31.38;;;13.65;;
40339;SDS011;26044;50.864;20.658;2023-03-23T08:08:58;27.05;;;12.73;;
40339;SDS011;26044;50.864;20.658;2023-03-23T08:11:25;27.55;;;12.18;;
40339;SDS011;26044;50.864;20.658;2023-03-23T08:13:51;25.75;;;11.98;;
40339;SDS011;26044;50.864;20.658;2023-03-23T08:16:18;30.40;;;12.35;;
40339;SDS011;26044;50.864;20.658;2023-03-23T08:18:45;28.65;;;11.38;;
40339;SDS011;26044;50.864;20.658;2023-03-23T08:21:12;26.00;;;11.77;;
40339;SDS011;26044;50.864;20.658;2023-03-23T08:23:38;25.63;;;11.35;;
40339;SDS011;26044;50.864;20.658;2023-03-23T08:26:05;30.80;;;11.43;;
40339;SDS011;26044;50.864;20.658;2023-03-23T08:28:35;21.88;;;10.15;;
40339;SDS011;26044;50.864;20.658;2023-03-23T08:31:11;23.52;;;10.82;;
40339;SDS011;26044;50.864;20.658;2023-03-23T08:33:38;23.80;;;10.10;;
40339;SDS011;26044;50.864;20.658;2023-03-23T08:36:04;22.33;;;9.85;;
40339;SDS011;26044;50.864;20.658;2023-03-23T08:38:30;23.80;;;9.65;;
40339;SDS011;26044;50.864;20.658;2023-03-23T08:40:58;26.30;;;10.07;;
40339;SDS011;26044;50.864;20.658;2023-03-23T08:43:24;28.10;;;11.10;;
40339;SDS011;26044;50.864;20.658;2023-03-23T08:45:50;24.10;;;9.93;;
40339;SDS011;26044;50.864;20.658;2023-03-23T08:48:17;29.58;;;12.20;;
40339;SDS011;26044;50.864;20.658;2023-03-23T08:50:43;23.55;;;11.23;;
40339;SDS011;26044;50.864;20.658;2023-03-23T08:53:09;28.77;;;12.27;;
40339;SDS011;26044;50.864;20.658;2023-03-23T08:55:36;43.65;;;18.48;;
40339;SDS011;26044;50.864;20.658;2023-03-23T08:58:03;25.33;;;10.80;;
40339;SDS011;26044;50.864;20.658;2023-03-23T09:00:29;25.35;;;9.48;;
40339;SDS011;26044;50.864;20.658;2023-03-23T09:02:56;20.70;;;8.70;;
40339;SDS011;26044;50.864;20.658;2023-03-23T09:05:23;20.45;;;8.90;;
40339;SDS011;26044;50.864;20.658;2023-03-23T09:07:50;20.02;;;8.35;;
40339;SDS011;26044;50.864;20.658;2023-03-23T09:10:16;20.80;;;8.73;;
40339;SDS011;26044;50.864;20.658;2023-03-23T09:12:43;28.25;;;8.38;;
40339;SDS011;26044;50.864;20.658;2023-03-23T09:15:10;18.70;;;7.80;;
40339;SDS011;26044;50.864;20.658;2023-03-23T09:17:41;20.15;;;7.18;;
40339;SDS011;26044;50.864;20.658;2023-03-23T09:20:09;23.63;;;8.90;;
40339;SDS011;26044;50.864;20.658;2023-03-23T09:22:39;23.05;;;7.85;;
40339;SDS011;26044;50.864;20.658;2023-03-23T09:25:06;19.98;;;7.38;;
40339;SDS011;26044;50.864;20.658;2023-03-23T09:27:34;18.15;;;6.53;;
40339;SDS011;26044;50.864;20.658;2023-03-23T09:30:02;18.02;;;6.43;;
40339;SDS011;26044;50.864;20.658;2023-03-23T09:32:32;17.55;;;6.75;;
40339;SDS011;26044;50.864;20.658;2023-03-23T09:34:58;22.13;;;6.75;;
40339;SDS011;26044;50.864;20.658;2023-03-23T09:37:24;16.55;;;6.38;;
40339;SDS011;26044;50.864;20.658;2023-03-23T09:39:51;14.40;;;5.45;;
40339;SDS011;26044;50.864;20.658;2023-03-23T09:42:31;14.18;;;5.50;;
40339;SDS011;26044;50.864;20.658;2023-03-23T09:47:44;17.30;;;6.18;;
40339;SDS011;26044;50.864;20.658;2023-03-23T09:50:20;17.50;;;5.68;;
40339;SDS011;26044;50.864;20.658;2023-03-23T09:52:50;14.32;;;5.57;;
40339;SDS011;26044;50.864;20.658;2023-03-23T09:55:17;12.98;;;5.22;;
40339;SDS011;26044;50.864;20.658;2023-03-23T09:57:47;14.18;;;5.20;;
40339;SDS011;26044;50.864;20.658;2023-03-23T10:00:15;14.70;;;4.82;;
40339;SDS011;26044;50.864;20.658;2023-03-23T10:02:48;12.37;;;4.73;;
40339;SDS011;26044;50.864;20.658;2023-03-23T10:07:45;14.95;;;5.15;;
40339;SDS011;26044;50.864;20.658;2023-03-23T10:10:12;12.68;;;4.85;;
40339;SDS011;26044;50.864;20.658;2023-03-23T10:17:55;12.75;;;4.32;;
40339;SDS011;26044;50.864;20.658;2023-03-23T10:20:26;14.10;;;4.78;;
40339;SDS011;26044;50.864;20.658;2023-03-23T10:25:24;11.73;;;5.03;;
40339;SDS011;26044;50.864;20.658;2023-03-23T10:32:55;12.18;;;4.75;;
40339;SDS011;26044;50.864;20.658;2023-03-23T10:35:25;13.18;;;4.97;;
40339;SDS011;26044;50.864;20.658;2023-03-23T10:37:58;13.43;;;4.70;;
40339;SDS011;26044;50.864;20.658;2023-03-23T10:40:27;12.95;;;4.82;;
40339;SDS011;26044;50.864;20.658;2023-03-23T10:42:54;11.23;;;4.35;;
40339;SDS011;26044;50.864;20.658;2023-03-23T10:45:26;12.43;;;4.28;;
40339;SDS011;26044;50.864;20.658;2023-03-23T10:47:59;11.93;;;4.78;;
40339;SDS011;26044;50.864;20.658;2023-03-23T10:50:31;12.05;;;4.45;;
40339;SDS011;26044;50.864;20.658;2023-03-23T10:52:58;11.75;;;4.35;;
40339;SDS011;26044;50.864;20.658;2023-03-23T10:55:35;13.43;;;4.35;;
40339;SDS011;26044;50.864;20.658;2023-03-23T10:58:12;13.13;;;4.78;;
40339;SDS011;26044;50.864;20.658;2023-03-23T11:00:44;13.23;;;4.75;;
40339;SDS011;26044;50.864;20.658;2023-03-23T11:05:42;14.57;;;4.80;;
40339;SDS011;26044;50.864;20.658;2023-03-23T11:08:15;11.52;;;4.32;;
40339;SDS011;26044;50.864;20.658;2023-03-23T11:10:50;11.88;;;4.65;;
40339;SDS011;26044;50.864;20.658;2023-03-23T11:13:17;14.43;;;4.65;;
40339;SDS011;26044;50.864;20.658;2023-03-23T11:15:45;10.27;;;4.15;;
40339;SDS011;26044;50.864;20.658;2023-03-23T11:18:12;13.93;;;4.53;;
40339;SDS011;26044;50.864;20.658;2023-03-23T11:20:40;13.75;;;4.40;;
40339;SDS011;26044;50.864;20.658;2023-03-23T11:23:11;12.07;;;4.05;;
40339;SDS011;26044;50.864;20.658;2023-03-23T11:25:53;13.48;;;4.30;;
40339;SDS011;26044;50.864;20.658;2023-03-23T11:28:19;11.98;;;4.57;;
40339;SDS011;26044;50.864;20.658;2023-03-23T11:30:46;15.98;;;4.70;;
40339;SDS011;26044;50.864;20.658;2023-03-23T11:33:12;14.73;;;4.60;;
40339;SDS011;26044;50.864;20.658;2023-03-23T11:35:42;16.58;;;4.80;;
40339;SDS011;26044;50.864;20.658;2023-03-23T11:38:11;15.15;;;4.57;;
40339;SDS011;26044;50.864;20.658;2023-03-23T11:40:47;12.80;;;4.43;;
40339;SDS011;26044;50.864;20.658;2023-03-23T11:43:14;13.20;;;4.88;;
40339;SDS011;26044;50.864;20.658;2023-03-23T11:45:45;14.40;;;4.20;;
40339;SDS011;26044;50.864;20.658;2023-03-23T11:53:27;12.65;;;4.57;;
40339;SDS011;26044;50.864;20.658;2023-03-23T11:58:22;15.55;;;4.78;;
40339;SDS011;26044;50.864;20.658;2023-03-23T12:03:16;18.40;;;4.40;;
40339;SDS011;26044;50.864;20.658;2023-03-23T12:08:30;13.93;;;5.00;;
40339;SDS011;26044;50.864;20.658;2023-03-23T12:11:09;13.25;;;4.55;;
40339;SDS011;26044;50.864;20.658;2023-03-23T12:13:51;14.60;;;4.28;;
40339;SDS011;26044;50.864;20.658;2023-03-23T12:21:49;14.45;;;4.50;;
40339;SDS011;26044;50.864;20.658;2023-03-23T12:24:30;10.70;;;3.85;;
40339;SDS011;26044;50.864;20.658;2023-03-23T12:27:08;13.23;;;3.65;;
40339;SDS011;26044;50.864;20.658;2023-03-23T12:48:15;17.15;;;4.30;;
40339;SDS011;26044;50.864;20.658;2023-03-23T12:53:10;20.83;;;3.75;;
40339;SDS011;26044;50.864;20.658;2023-03-23T12:58:12;11.73;;;3.17;;
40339;SDS011;26044;50.864;20.658;2023-03-23T13:05:53;21.08;;;4.32;;
40339;SDS011;26044;50.864;20.658;2023-03-23T13:08:22;10.77;;;2.83;;
40339;SDS011;26044;50.864;20.658;2023-03-23T13:10:50;10.38;;;2.55;;
40339;SDS011;26044;50.864;20.658;2023-03-23T13:13:18;11.27;;;3.20;;
40339;SDS011;26044;50.864;20.658;2023-03-23T13:23:59;8.20;;;3.00;;
40339;SDS011;26044;50.864;20.658;2023-03-23T13:26:27;14.93;;;3.20;;
40339;SDS011;26044;50.864;20.658;2023-03-23T13:31:30;7.60;;;2.88;;
40339;SDS011;26044;50.864;20.658;2023-03-23T13:34:20;8.50;;;2.70;;
40339;SDS011;26044;50.864;20.658;2023-03-23T13:39:21;9.18;;;2.92;;
40339;SDS011;26044;50.864;20.658;2023-03-23T13:52:17;7.90;;;2.30;;
40339;SDS011;26044;50.864;20.658;2023-03-23T13:54:45;9.30;;;2.42;;
40339;SDS011;26044;50.864;20.658;2023-03-23T13:57:20;10.70;;;2.78;;
40339;SDS011;26044;50.864;20.658;2023-03-23T13:59:48;6.78;;;2.35;;
40339;SDS011;26044;50.864;20.658;2023-03-23T14:04:53;9.57;;;2.80;;
40339;SDS011;26044;50.864;20.658;2023-03-23T14:07:19;19.15;;;3.13;;
40339;SDS011;26044;50.864;20.658;2023-03-23T14:09:46;8.02;;;2.50;;
40339;SDS011;26044;50.864;20.658;2023-03-23T14:12:25;8.02;;;2.63;;
40339;SDS011;26044;50.864;20.658;2023-03-23T14:14:55;6.43;;;2.58;;
40339;SDS011;26044;50.864;20.658;2023-03-23T14:17:31;9.20;;;2.83;;
40339;SDS011;26044;50.864;20.658;2023-03-23T14:20:00;4.60;;;2.28;;
40339;SDS011;26044;50.864;20.658;2023-03-23T14:22:32;10.55;;;3.58;;
40339;SDS011;26044;50.864;20.658;2023-03-23T14:24:59;8.45;;;2.33;;
40339;SDS011;26044;50.864;20.658;2023-03-23T14:27:26;7.82;;;2.30;;
40339;SDS011;26044;50.864;20.658;2023-03-23T14:30:00;9.38;;;3.00;;
40339;SDS011;26044;50.864;20.658;2023-03-23T14:32:27;8.95;;;2.90;;
40339;SDS011;26044;50.864;20.658;2023-03-23T14:34:53;5.85;;;2.70;;
40339;SDS011;26044;50.864;20.658;2023-03-23T14:37:20;8.82;;;3.20;;
40339;SDS011;26044;50.864;20.658;2023-03-23T14:39:51;5.68;;;2.33;;
40339;SDS011;26044;50.864;20.658;2023-03-23T14:42:19;12.00;;;2.60;;
40339;SDS011;26044;50.864;20.658;2023-03-23T14:44:47;9.00;;;2.67;;
40339;SDS011;26044;50.864;20.658;2023-03-23T14:47:24;7.10;;;2.95;;
40339;SDS011;26044;50.864;20.658;2023-03-23T14:49:58;10.27;;;3.00;;
40339;SDS011;26044;50.864;20.658;2023-03-23T14:52:25;8.73;;;2.58;;
40339;SDS011;26044;50.864;20.658;2023-03-23T14:54:52;7.68;;;2.60;;
40339;SDS011;26044;50.864;20.658;2023-03-23T14:57:28;10.15;;;2.60;;
40339;SDS011;26044;50.864;20.658;2023-03-23T14:59:54;7.88;;;3.05;;
40339;SDS011;26044;50.864;20.658;2023-03-23T15:04:53;11.57;;;3.03;;
40339;SDS011;26044;50.864;20.658;2023-03-23T15:07:21;7.03;;;2.80;;
40339;SDS011;26044;50.864;20.658;2023-03-23T15:09:49;11.50;;;3.22;;
40339;SDS011;26044;50.864;20.658;2023-03-23T15:12:20;7.47;;;2.67;;
40339;SDS011;26044;50.864;20.658;2023-03-23T15:14:48;9.90;;;3.35;;
40339;SDS011;26044;50.864;20.658;2023-03-23T15:17:30;8.70;;;3.03;;
40339;SDS011;26044;50.864;20.658;2023-03-23T15:19:57;9.80;;;3.10;;
40339;SDS011;26044;50.864;20.658;2023-03-23T15:24:51;10.20;;;3.67;;
40339;SDS011;26044;50.864;20.658;2023-03-23T15:29:50;10.50;;;3.50;;
40339;SDS011;26044;50.864;20.658;2023-03-23T15:35:03;9.75;;;3.45;;
40339;SDS011;26044;50.864;20.658;2023-03-23T15:37:30;10.13;;;3.60;;
40339;SDS011;26044;50.864;20.658;2023-03-23T15:39:58;11.32;;;4.05;;
40339;SDS011;26044;50.864;20.658;2023-03-23T15:42:29;10.82;;;3.33;;
40339;SDS011;26044;50.864;20.658;2023-03-23T15:45:05;13.02;;;3.50;;
40339;SDS011;26044;50.864;20.658;2023-03-23T15:47:36;13.00;;;4.05;;
40339;SDS011;26044;50.864;20.658;2023-03-23T15:50:08;10.85;;;4.25;;
40339;SDS011;26044;50.864;20.658;2023-03-23T15:52:35;8.75;;;3.90;;
40339;SDS011;26044;50.864;20.658;2023-03-23T15:55:01;11.65;;;4.00;;
40339;SDS011;26044;50.864;20.658;2023-03-23T15:57:27;12.82;;;4.00;;
40339;SDS011;26044;50.864;20.658;2023-03-23T15:59:53;11.50;;;4.05;;
40339;SDS011;26044;50.864;20.658;2023-03-23T16:02:21;16.23;;;5.32;;
40339;SDS011;26044;50.864;20.658;2023-03-23T16:04:50;16.77;;;5.33;;
40339;SDS011;26044;50.864;20.658;2023-03-23T16:07:22;14.20;;;4.93;;
40339;SDS011;26044;50.864;20.658;2023-03-23T16:09:49;12.55;;;4.50;;
40339;SDS011;26044;50.864;20.658;2023-03-23T16:12:18;15.30;;;4.40;;
40339;SDS011;26044;50.864;20.658;2023-03-23T16:14:45;11.25;;;3.90;;
40339;SDS011;26044;50.864;20.658;2023-03-23T16:17:14;13.95;;;4.10;;
40339;SDS011;26044;50.864;20.658;2023-03-23T16:19:42;11.30;;;4.00;;
40339;SDS011;26044;50.864;20.658;2023-03-23T16:22:10;14.00;;;4.43;;
40339;SDS011;26044;50.864;20.658;2023-03-23T16:24:37;13.43;;;3.88;;
40339;SDS011;26044;50.864;20.658;2023-03-23T16:27:04;13.32;;;4.15;;
40339;SDS011;26044;50.864;20.658;2023-03-23T16:29:31;13.35;;;4.82;;
40339;SDS011;26044;50.864;20.658;2023-03-23T16:32:19;14.23;;;4.50;;
40339;SDS011;26044;50.864;20.658;2023-03-23T16:34:52;10.70;;;4.07;;